• pl
  • eng

Awiacja
WIADOMOŚCI
ostatnia aktualizacja: 17.04.2020 19:04
Szanowni Państwo,

mając na uwadze sytuację związaną z pandemią wywołaną koronawirusem SARS-Cov-2 oraz w trosce o bezpieczeństwo Państwa oraz naszych pracowników, IMGW-PIB podjął decyzję o przeniesieniu kolejnej edycji Szkoły Meteorologii Lotniczej na przyszły rok. W tej chwili podanie dokładnego terminu szkoły nie jest możliwe, ale jak tylko będzie znany zostanie ogłoszony na naszych stronach internetowych, do których śledzenia serdecznie zapraszamy.

TAF FT 16:30 18.09.2020
  • WIND
  • SIGNIFICANT EURO
  • SIGNIFICANT
  • SIGMET
  • AIRMET
  • TAF FC
  • TAF FT
  • METAR GG30
  • METAR GG00


TAF EPBY 181130Z 1812/1912 32007KT CAVOK
PROB30 1823/1906 0500 FG BKN003=

TAF EPGD 181130Z 1812/1912 30010KT CAVOK
PROB40 1900/1906 3000 BR
PROB40 TEMPO 1905/1912 BKN012 BKN025
BECMG 1909/1912 VRB02KT=

TAF EPKK 181130Z 1812/1912 01003KT CAVOK
PROB40 TEMPO 1902/1905 0600 FG
BECMG 1908/1910 07010KT=

TAF EPKK 181430Z 1815/1915 35005KT CAVOK
BECMG 1908/1910 07010KT=

TAF EPKT 181130Z 1812/1912 34005KT CAVOK
BECMG 1909/1911 09010KT=

TAF EPLL 181130Z 1812/1912 30010KT CAVOK
BECMG 1817/1819 VRB02KT=

TAF EPMO 181130Z 1812/1912 31010KT CAVOK
BECMG 1819/1821 VRB02KT
PROB40 1901/1906 0600 FG=

TAF EPPO 181130Z 1812/1912 33005KT CAVOK
BECMG 1907/1909 09010KT=

TAF EPRZ 181130Z 1812/1912 31010KT 9999 SCT040
BECMG 1816/1818 25004KT=

TAF EPSC 181130Z 1812/1912 VRB04KT CAVOK
TEMPO 1822/1907 3000 BR
PROB40 1900/1906 0500 FG BKN001
BECMG 1909/1912 10010KT=

TAF EPWA 181130Z 1812/1912 31008KT CAVOK
PROB30 1901/1906 3000 BR=

TAF EPWA 181430Z 1815/1915 31008KT CAVOK
PROB30 1901/1906 4000 BR=

TAF EPWR 181130Z 1812/1912 VRB02KT CAVOK
BECMG 1907/1909 09010KT=

TAF EPWR 181430Z 1815/1915 VRB02KT CAVOK
BECMG 1907/1909 09010KT=
Awiacja.imgw.pl jest pogodowym serwisem informacyjnym
Instytutu Meteorologii i Gospodarki Wodnej Państwowego Instytutu Badawczego.
Copyright IMGW PIB 2009-2019© Wszelkie prawa zastrzeżone.